ETIK

Illesheim Air Base Heliport

Storck Barracks, Germany
METAR ETIK 192000Z AUTO 00000KT 8000 HZ BKN038 BKN055 20/15 A3026 RMK AO2 RAB1957E00 SLP238 $
Observed Flight Rules
Jun-19 @ 20:00 UTC (16 minutes ago) Marginal Visual Flight Rules
Visibility Clouds Conditions
7,998 meters
  • Broken at 3,800' AGL
  • Broken at 5,500' AGL
  • Haze
Temperatures Readings
Current 20°C / 68°F
Dewpoint 15°C / 59°F
Humidity 73%
Altimeter 30.26" Hg
Pressure 1023.8 hPa
Elevation 325
METAR ETIK 192000Z AUTO 00000KT 8000 HZ BKN038 BKN055 20/15 A3026 RMK AO2 RAB1957E00 SLP238 $
Observed Flight Rules
Jun-19 @ 20:00 UTC
(16 minutes ago)
MVFR
Clouds
  • Broken at 3,800' AGL
  • Broken at 5,500' AGL
Conditions
  • Haze
Temperature Dewpoint
20°C / 68°F 15°C / 59°F
Humidity Altimeter Pressure
73% 30.26" Hg 1023.8 hPa